| time (UTC) | temp C | wind direction | speed KPH | gust KPH | rain 1hr cm | rain 24hr cm | rain mn cm | humidity % | barometer mb |
| 20260504034017 | 12 | 136 | 3.2 | 6.4 | 0.00 | 0.25 | 0.25 | 73 | 1006.7 |
| 20260504033017 | 12 | 97 | 3.2 | 4.8 | 0.00 | 0.25 | 0.25 | 72 | 1006.8 |
| 20260504032021 | 13 | 121 | 1.6 | 4.8 | 0.00 | 0.25 | 0.25 | 70 | 1006.9 |
| 20260504031018 | 13 | 121 | 1.6 | 4.8 | 0.00 | 0.25 | 0.25 | 69 | 1006.9 |
| 20260504030018 | 14 | 132 | 1.6 | 6.4 | 0.00 | 0.25 | 0.25 | 67 | 1006.6 |
| 20260504025018 | 14 | 158 | 1.6 | 4.8 | 0.00 | 0.25 | 0.25 | 65 | 1006.6 |
| 20260504024118 | 15 | 192 | 1.6 | 6.4 | 0.00 | 0.25 | 0.25 | 64 | 1006.6 |
| 20260504023018 | 15 | 211 | 1.6 | 8.0 | 0.00 | 0.25 | 0.25 | 64 | 1006.5 |
| 20260504022018 | 15 | 194 | 1.6 | 8.0 | 0.00 | 0.25 | 0.25 | 63 | 1006.4 |
| 20260504021019 | 15 | 188 | 1.6 | 6.4 | 0.00 | 0.25 | 0.25 | 62 | 1006.3 |
| 20260504020039 | 15 | 183 | 3.2 | 6.4 | 0.00 | 0.25 | 0.25 | 62 | 1006.3 |
| 20260504015019 | 15 | 207 | 3.2 | 9.7 | 0.00 | 0.25 | 0.25 | 62 | 1006.1 |
| 20260504014020 | 15 | 212 | 1.6 | 6.4 | 0.00 | 0.25 | 0.25 | 61 | 1006.1 |
| 20260504013019 | 15 | 183 | 1.6 | 4.8 | 0.00 | 0.25 | 0.25 | 60 | 1006.2 |
| 20260504012020 | 16 | 132 | 1.6 | 4.8 | 0.00 | 0.25 | 0.25 | 59 | 1006.1 |
| 20260504011037 | 16 | 104 | 3.2 | 4.8 | 0.00 | 0.25 | 0.25 | 58 | 1006.0 |
| 20260504010018 | 16 | 161 | 3.2 | 8.0 | 0.00 | 0.25 | 0.25 | 57 | 1006.0 |
| 20260504005018 | 17 | 173 | 3.2 | 11.3 | 0.00 | 0.25 | 0.25 | 55 | 1006.0 |
| 20260504004020 | 17 | 212 | 3.2 | 12.9 | 0.00 | 0.25 | 0.25 | 53 | 1006.0 |
| 20260504003020 | 17 | 208 | 4.8 | 9.7 | 0.00 | 0.25 | 0.25 | 52 | 1006.0 |
| 20260504002018 | 18 | 216 | 3.2 | 12.9 | 0.00 | 0.25 | 0.25 | 51 | 1006.0 |
| 20260504001058 | 18 | 214 | 4.8 | 9.7 | 0.00 | 0.25 | 0.25 | 50 | 1006.1 |
| 20260504000018 | 18 | 228 | 4.8 | 11.3 | 0.00 | 0.25 | 0.25 | 48 | 1006.2 |
| 20260503235018 | 19 | 235 | 4.8 | 12.9 | 0.00 | 0.25 | 0.25 | 47 | 1006.1 |
| 20260503234018 | 19 | 220 | 6.4 | 17.7 | 0.00 | 0.25 | 0.25 | 46 | 1006.0 |
| 20260503233019 | 19 | 232 | 9.7 | 20.9 | 0.00 | 0.25 | 0.25 | 46 | 1006.0 |
| 20260503232038 | 20 | 246 | 8.0 | 16.1 | 0.00 | 0.25 | 0.25 | 46 | 1006.0 |
| 20260503231019 | 20 | 234 | 9.7 | 22.5 | 0.00 | 0.25 | 0.25 | 45 | 1006.1 |
| 20260503230019 | 19 | 227 | 6.4 | 17.7 | 0.00 | 0.25 | 0.25 | 45 | 1006.2 |
| 20260503225016 | 18 | 213 | 8.0 | 17.7 | 0.00 | 0.25 | 0.25 | 47 | 1006.3 |
| 20260503224019 | 18 | 219 | 6.4 | 14.5 | 0.00 | 0.25 | 0.25 | 48 | 1006.4 |
| 20260503223039 | 17 | 201 | 3.2 | 12.9 | 0.00 | 0.25 | 0.25 | 50 | 1006.5 |
| 20260503222019 | 18 | 226 | 6.4 | 12.9 | 0.00 | 0.25 | 0.25 | 48 | 1006.6 |
| 20260503221020 | 18 | 213 | 6.4 | 12.9 | 0.00 | 0.25 | 0.25 | 48 | 1006.7 |
| 20260503220017 | 18 | 195 | 4.8 | 12.9 | 0.00 | 0.25 | 0.25 | 48 | 1006.7 |
| 20260503215017 | 18 | 229 | 8.0 | 20.9 | 0.00 | 0.25 | 0.25 | 47 | 1006.7 |
| 20260503214020 | 18 | 225 | 8.0 | 19.3 | 0.00 | 0.25 | 0.25 | 47 | 1006.9 |
| 20260503213021 | 18 | 216 | 6.4 | 16.1 | 0.00 | 0.25 | 0.25 | 47 | 1007.1 |
| 20260503212018 | 18 | 231 | 8.0 | 16.1 | 0.00 | 0.25 | 0.25 | 47 | 1007.3 |
| 20260503211018 | 18 | 217 | 9.7 | 19.3 | 0.00 | 0.25 | 0.25 | 47 | 1007.5 |
| 20260503210018 | 17 | 214 | 8.0 | 19.3 | 0.00 | 0.25 | 0.25 | 47 | 1007.6 |
| 20260503205018 | 17 | 219 | 8.0 | 19.3 | 0.00 | 0.25 | 0.25 | 46 | 1007.8 |
| 20260503204038 | 17 | 220 | 8.0 | 17.7 | 0.00 | 0.25 | 0.25 | 46 | 1008.0 |
| 20260503203018 | 16 | 224 | 8.0 | 22.5 | 0.00 | 0.25 | 0.25 | 48 | 1008.0 |
| 20260503202019 | 16 | 212 | 8.0 | 16.1 | 0.00 | 0.25 | 0.25 | 46 | 1008.3 |
| 20260503201019 | 17 | 225 | 9.7 | 19.3 | 0.00 | 0.25 | 0.25 | 47 | 1008.2 |
| 20260503200019 | 17 | 211 | 8.0 | 19.3 | 0.00 | 0.25 | 0.25 | 46 | 1008.4 |
| 20260503195019 | 17 | 228 | 8.0 | 16.1 | 0.00 | 0.25 | 0.25 | 47 | 1008.4 |
| 20260503194019 | 17 | 227 | 9.7 | 24.1 | 0.00 | 0.25 | 0.25 | 47 | 1008.5 |
| 20260503193039 | 17 | 215 | 6.4 | 19.3 | 0.00 | 0.25 | 0.25 | 50 | 1008.8 |
| 20260503192020 | 16 | 222 | 8.0 | 16.1 | 0.00 | 0.25 | 0.25 | 52 | 1008.9 |
| 20260503191017 | 16 | 194 | 6.4 | 16.1 | 0.00 | 0.25 | 0.25 | 52 | 1009.1 |
| 20260503190017 | 16 | 204 | 8.0 | 19.3 | 0.00 | 0.25 | 0.25 | 56 | 1009.2 |
| 20260503185017 | 15 | 198 | 8.0 | 24.1 | 0.00 | 0.25 | 0.25 | 57 | 1009.4 |
| 20260503184020 | 15 | 175 | 6.4 | 22.5 | 0.00 | 0.25 | 0.25 | 62 | 1009.7 |
| 20260503183020 | 13 | 123 | 4.8 | 12.9 | 0.00 | 0.25 | 0.25 | 67 | 1009.9 |
| 20260503182018 | 12 | 138 | 4.8 | 11.3 | 0.00 | 0.25 | 0.25 | 72 | 1010.1 |
| 20260503181018 | 11 | 100 | 4.8 | 11.3 | 0.00 | 0.25 | 0.25 | 77 | 1010.6 |
| 20260503180018 | 10 | 80 | 4.8 | 9.7 | 0.03 | 0.25 | 0.25 | 78 | 1011.0 |
| 20260503175018 | 10 | 75 | 3.2 | 8.0 | 0.03 | 0.25 | 0.25 | 79 | 1011.5 |
| 20260503174018 | 10 | 76 | 3.2 | 6.4 | 0.03 | 0.25 | 0.25 | 78 | 1011.9 |
| 20260503173019 | 10 | 97 | 4.8 | 9.7 | 0.05 | 0.25 | 0.25 | 82 | 1012.6 |
| 20260503172019 | 10 | 93 | 3.2 | 6.4 | 0.05 | 0.25 | 0.25 | 83 | 1012.7 |
| 20260503171020 | 10 | 175 | 4.8 | 14.5 | 0.05 | 0.25 | 0.25 | 81 | 1012.9 |
| 20260503131017 | 9 | 222 | 4.8 | 11.3 | 0.00 | 0.00 | 0.00 | 66 | 1014.1 |
| 20260503081018 | 4 | 103 | 1.6 | 3.2 | 0.00 | 0.00 | 0.00 | 76 | 1014.4 |
| 20260503072019 | 5 | 107 | 1.6 | 3.2 | 0.00 | 0.00 | 0.00 | 73 | 1014.3 |
| 20260503071019 | 5 | 120 | 1.6 | 4.8 | 0.00 | 0.00 | 0.00 | 71 | 1014.4 |
| 20260503055021 | 6 | 111 | 3.2 | 6.4 | 0.00 | 0.00 | 0.00 | 68 | 1015.1 |
| 20260503054017 | 6 | 106 | 1.6 | 4.8 | 0.00 | 0.00 | 0.00 | 68 | 1015.1 |
| 20260503053018 | 5 | 138 | 1.6 | 4.8 | 0.00 | 0.00 | 0.00 | 69 | 1015.2 |
| 20260503052018 | 5 | 95 | 1.6 | 3.2 | 0.00 | 0.00 | 0.00 | 71 | 1015.3 |
| 20260503051018 | 5 | 103 | 1.6 | 3.2 | 0.00 | 0.00 | 0.00 | 71 | 1015.3 |
| 20260503050018 | 5 | 101 | 1.6 | 3.2 | 0.00 | 0.00 | 0.00 | 71 | 1015.4 |
| 20260503045019 | 5 | 104 | 1.6 | 4.8 | 0.00 | 0.00 | 0.00 | 70 | 1015.4 |
| 20260503044019 | 5 | 89 | 1.6 | 3.2 | 0.00 | 0.00 | 0.00 | 70 | 1015.4 |
| 20260503043019 | 5 | 104 | 1.6 | 3.2 | 0.00 | 0.00 | 0.00 | 70 | 1015.4 |
| 20260503042019 | 5 | 105 | 3.2 | 3.2 | 0.00 | 0.00 | 0.00 | 71 | 1015.5 |
| 20260503041016 | 5 | 104 | 1.6 | 3.2 | 0.00 | 0.00 | 0.00 | 72 | 1015.5 |
| 20260503040020 | 6 | 102 | 3.2 | 3.2 | 0.00 | 0.00 | 0.00 | 71 | 1015.5 |
| 20260503035020 | 6 | 107 | 1.6 | 3.2 | 0.00 | 0.00 | 0.00 | 70 | 1015.6 |